Terminal Aerodrome Forecast
Issued by NWS Sterling, VA

Current Version | Previous Version | Text Only | Print | Product List | Glossary Off
Versions: 1 2 3 4 5 6 7 8 9 10 11 12 13 14 15 16

000
FTUS41 KLWX 202300 RRA
TAFMRB
TAF
KMRB 202348Z 2100/2124 15004KT P6SM FEW250
     FM210200 00000KT P6SM FEW250
     FM210900 00000KT 3SM BR SCT250
     FM211400 24004KT P6SM SCT250
     FM211800 25008KT P6SM SCT250
     FM212000 26010G19KT P6SM SCT250
     FM212300 27007KT P6SM SCT250=

USA.gov is the U.S. government's official web portal to all federal, state and local government web resources and services.